Aviation Digital Data Service (ADDS)

Output produced by METARs form (0243 UTC 24 July 2017)
found at http://www.aviationweather.gov/adds/metars/
 
WBSB 240230Z 21007KT 9999 FEW016 BKN300 31/25 Q1010 NOSIG
TAF WBSB 232250Z 2400/2506 21003KT 8000 FEW015 SCT140 
     BECMG 2403/2405 FEW016 FEW017CB 
     PROB40 
     TEMPO 2404/2406 5000 SHRA SCT015 FEW016CB